createdAt,value
2018-11-13T00:00:49.944Z,9.50
2018-11-13T00:03:18.141Z,9.50
2018-11-13T00:05:46.374Z,9.40
2018-11-13T00:08:14.590Z,9.40
2018-11-13T00:10:43.172Z,9.50
2018-11-13T00:13:11.373Z,9.40
2018-11-13T00:15:39.687Z,9.40
2018-11-13T00:18:07.965Z,9.40
2018-11-13T00:20:36.220Z,9.40
2018-11-13T00:23:04.985Z,9.40
2018-11-13T00:25:33.156Z,9.40
2018-11-13T00:28:01.357Z,9.40
2018-11-13T00:30:29.548Z,9.40
2018-11-13T00:32:57.936Z,9.40
2018-11-13T00:35:26.414Z,9.40
2018-11-13T00:37:54.628Z,9.50
2018-11-13T00:40:22.813Z,9.50
2018-11-13T00:42:51.036Z,9.50
2018-11-13T00:45:19.303Z,9.50
2018-11-13T00:47:48.065Z,9.50
2018-11-13T00:50:17.477Z,9.50
2018-11-13T00:52:46.240Z,9.50
2018-11-13T00:55:15.172Z,9.50
2018-11-13T00:57:43.990Z,9.50
2018-11-13T01:00:14.704Z,9.50
2018-11-13T01:02:43.393Z,9.50
2018-11-13T01:05:13.272Z,9.50
2018-11-13T01:07:42.025Z,9.50
2018-11-13T01:10:11.609Z,9.50
2018-11-13T01:12:40.064Z,9.50
2018-11-13T01:15:09.646Z,9.50
2018-11-13T01:17:37.408Z,9.50
2018-11-13T01:20:05.708Z,9.60
2018-11-13T01:22:34.404Z,9.60
2018-11-13T01:25:02.131Z,9.60
2018-11-13T01:27:30.354Z,9.50
2018-11-13T01:29:58.841Z,9.50
2018-11-13T01:32:29.325Z,9.50
2018-11-13T01:34:57.554Z,9.50
2018-11-13T01:37:25.808Z,9.50
2018-11-13T01:39:54.513Z,9.50
2018-11-13T01:42:23.081Z,9.50
2018-11-13T01:44:51.707Z,9.50
2018-11-13T01:47:19.880Z,9.50
2018-11-13T01:49:48.072Z,9.50
2018-11-13T01:52:16.257Z,9.50
2018-11-13T01:54:44.452Z,9.50
2018-11-13T01:57:13.155Z,9.50
2018-11-13T01:59:40.889Z,9.50
2018-11-13T02:02:09.110Z,9.50
2018-11-13T02:04:37.322Z,9.40
2018-11-13T02:07:05.529Z,9.40
2018-11-13T02:09:33.728Z,9.40
2018-11-13T02:12:01.906Z,9.40
2018-11-13T02:14:30.108Z,9.40
2018-11-13T02:16:58.281Z,9.40
2018-11-13T02:19:26.480Z,9.40
2018-11-13T02:21:54.655Z,9.40
2018-11-13T02:24:22.857Z,9.40
2018-11-13T02:26:51.065Z,9.40
2018-11-13T02:29:19.728Z,9.40
2018-11-13T02:31:47.896Z,9.40
2018-11-13T02:34:16.091Z,9.40
2018-11-13T02:36:44.278Z,9.40
2018-11-13T02:39:12.486Z,9.40
2018-11-13T02:41:41.054Z,9.40
2018-11-13T02:44:09.900Z,9.40
2018-11-13T02:46:38.520Z,9.40
2018-11-13T02:49:15.517Z,9.50
2018-11-13T02:51:43.715Z,9.50
2018-11-13T02:54:11.922Z,9.50
2018-11-13T02:56:40.091Z,9.50
2018-11-13T02:59:08.276Z,9.50
2018-11-13T03:01:36.452Z,9.50
2018-11-13T03:04:04.808Z,9.60
2018-11-13T03:06:33.032Z,9.50
2018-11-13T03:09:01.204Z,9.60
2018-11-13T03:11:29.421Z,9.60
2018-11-13T03:13:57.685Z,9.60
2018-11-13T03:16:25.804Z,9.60
2018-11-13T03:18:54.027Z,9.70
2018-11-13T03:21:22.226Z,9.70
2018-11-13T03:23:50.412Z,9.70
2018-11-13T03:26:18.594Z,9.70
2018-11-13T03:28:47.388Z,9.70
2018-11-13T03:31:15.653Z,9.70
2018-11-13T03:33:43.757Z,9.70
2018-11-13T03:36:11.972Z,9.70
2018-11-13T03:38:40.157Z,9.70
2018-11-13T03:41:08.355Z,9.70
2018-11-13T03:43:36.522Z,9.70
2018-11-13T03:46:05.058Z,9.70
2018-11-13T03:48:33.433Z,9.70
2018-11-13T03:51:01.640Z,9.70
2018-11-13T03:53:29.820Z,9.80
2018-11-13T03:55:58.020Z,9.80
2018-11-13T03:58:26.199Z,9.80
2018-11-13T04:00:54.408Z,9.80
2018-11-13T04:03:22.589Z,9.80
2018-11-13T04:05:50.875Z,9.80
2018-11-13T04:08:19.330Z,9.80
2018-11-13T04:10:47.537Z,9.80
2018-11-13T04:13:15.956Z,9.80
2018-11-13T04:15:44.153Z,9.80
2018-11-13T04:18:12.341Z,9.80
2018-11-13T04:20:40.549Z,9.80
2018-11-13T04:23:08.780Z,9.80
2018-11-13T04:25:36.973Z,9.90
2018-11-13T04:28:05.145Z,9.90
2018-11-13T04:30:33.428Z,9.90
2018-11-13T04:33:02.188Z,9.90
2018-11-13T04:35:30.390Z,9.90
2018-11-13T04:37:58.561Z,9.90
2018-11-13T04:40:26.752Z,9.90
2018-11-13T04:42:54.935Z,9.90
2018-11-13T04:45:24.375Z,9.90
2018-11-13T04:47:52.581Z,9.90
2018-11-13T04:50:21.737Z,9.90
2018-11-13T04:52:49.974Z,10.00
2018-11-13T04:55:18.584Z,9.90
2018-11-13T04:57:47.789Z,10.00
2018-11-13T05:00:19.530Z,10.00
2018-11-13T05:02:47.844Z,10.00
2018-11-13T05:05:16.993Z,10.00
2018-11-13T05:07:47.337Z,10.00
2018-11-13T05:10:15.563Z,10.00
2018-11-13T05:12:44.960Z,10.00
2018-11-13T05:15:14.133Z,10.00
2018-11-13T05:17:43.039Z,10.00
2018-11-13T05:20:12.481Z,10.00
2018-11-13T05:22:40.684Z,10.10
2018-11-13T05:25:10.987Z,10.10
2018-11-13T05:27:40.090Z,10.10
2018-11-13T05:30:11.307Z,10.10
2018-11-13T05:32:39.572Z,10.10
2018-11-13T05:35:10.071Z,10.10
2018-11-13T05:37:38.421Z,10.10
2018-11-13T05:40:08.900Z,10.10
2018-11-13T05:42:37.134Z,10.00
2018-11-13T05:45:06.277Z,10.10
2018-11-13T05:47:34.480Z,10.10
2018-11-13T05:50:02.660Z,10.00
2018-11-13T05:52:30.856Z,10.00
2018-11-13T05:54:59.041Z,10.00
2018-11-13T05:57:27.236Z,10.00
2018-11-13T05:59:55.543Z,9.90
2018-11-13T06:02:23.673Z,9.90
2018-11-13T06:04:51.865Z,9.90
2018-11-13T06:07:20.056Z,9.90
2018-11-13T06:09:48.233Z,9.90
2018-11-13T06:12:17.084Z,9.90
2018-11-13T06:14:45.799Z,9.90
2018-11-13T06:17:13.978Z,9.90
2018-11-13T06:19:42.153Z,9.90
2018-11-13T06:22:10.356Z,9.90
2018-11-13T06:24:38.560Z,9.80
2018-11-13T06:27:06.789Z,9.80
2018-11-13T06:29:35.046Z,9.80
2018-11-13T06:32:03.199Z,9.90
2018-11-13T06:34:31.369Z,9.90
2018-11-13T06:36:59.884Z,9.90
2018-11-13T06:39:28.081Z,9.90
2018-11-13T06:41:56.361Z,9.80
2018-11-13T06:44:24.557Z,9.90
2018-11-13T06:46:52.739Z,9.80
2018-11-13T06:49:20.931Z,9.90
2018-11-13T06:51:49.117Z,9.90
2018-11-13T06:54:28.727Z,9.90
2018-11-13T06:56:56.900Z,10.00
2018-11-13T06:59:25.097Z,10.00
2018-11-13T07:01:53.317Z,10.10
2018-11-13T07:04:21.853Z,10.10
2018-11-13T07:06:50.064Z,10.10
2018-11-13T07:09:18.272Z,10.20
2018-11-13T07:11:46.497Z,10.20
2018-11-13T07:14:15.125Z,10.20
2018-11-13T07:16:46.222Z,10.30
2018-11-13T07:19:14.501Z,10.30
2018-11-13T07:21:43.525Z,10.30
2018-11-13T07:24:11.816Z,10.30
2018-11-13T07:26:40.125Z,10.30
2018-11-13T07:29:08.368Z,10.30
2018-11-13T07:31:37.129Z,10.30
2018-11-13T07:34:05.742Z,10.40
2018-11-13T07:36:33.889Z,10.30
2018-11-13T07:39:02.294Z,10.40
2018-11-13T07:41:30.493Z,10.40
2018-11-13T07:43:59.753Z,10.40
2018-11-13T07:46:27.981Z,10.40
2018-11-13T07:48:56.357Z,10.50
2018-11-13T07:51:24.537Z,10.50
2018-11-13T07:53:52.819Z,10.50
2018-11-13T07:56:20.956Z,10.60
2018-11-13T07:58:49.486Z,10.50
2018-11-13T08:01:18.081Z,10.50
2018-11-13T08:03:46.346Z,10.60
2018-11-13T08:06:14.511Z,10.60
2018-11-13T08:08:42.673Z,10.60
2018-11-13T08:11:10.850Z,10.60
2018-11-13T08:13:39.107Z,10.60
2018-11-13T08:16:07.263Z,10.60
2018-11-13T08:18:35.461Z,10.60
2018-11-13T08:21:03.703Z,10.50
2018-11-13T08:23:31.885Z,10.60
2018-11-13T08:26:00.077Z,10.50
2018-11-13T08:28:28.284Z,10.50
2018-11-13T08:30:56.462Z,10.50
2018-11-13T08:33:24.640Z,10.60
2018-11-13T08:35:52.824Z,10.60
2018-11-13T08:38:21.021Z,10.60
2018-11-13T08:40:49.207Z,10.60
2018-11-13T08:43:17.389Z,10.60
2018-11-13T08:45:45.621Z,10.70
2018-11-13T08:48:13.797Z,10.70
2018-11-13T08:50:42.038Z,10.80
2018-11-13T08:53:10.285Z,10.80
2018-11-13T08:55:38.494Z,10.80
2018-11-13T08:58:06.673Z,10.80
2018-11-13T09:00:34.869Z,10.90
2018-11-13T09:03:03.052Z,10.80
2018-11-13T09:05:31.285Z,10.90
2018-11-13T09:07:59.589Z,10.90
2018-11-13T09:10:27.780Z,11.00
2018-11-13T09:12:55.944Z,11.00
2018-11-13T09:15:24.153Z,11.20
2018-11-13T09:17:52.338Z,11.30
2018-11-13T09:20:21.536Z,11.30
2018-11-13T09:22:49.744Z,11.40
2018-11-13T09:25:19.568Z,11.50
2018-11-13T09:27:47.752Z,11.80
2018-11-13T09:30:19.420Z,12.20
2018-11-13T09:32:47.800Z,12.70
2018-11-13T09:35:16.765Z,13.10
2018-11-13T09:37:44.933Z,13.40
2018-11-13T09:40:17.476Z,13.70
2018-11-13T09:42:46.628Z,13.50
2018-11-13T09:45:15.420Z,13.20
2018-11-13T09:47:43.976Z,12.90
2018-11-13T09:50:13.672Z,12.70
2018-11-13T09:52:42.822Z,12.50
2018-11-13T09:55:12.452Z,12.30
2018-11-13T09:57:40.626Z,12.10
2018-11-13T10:00:13.783Z,12.10
2018-11-13T10:02:43.212Z,12.00
2018-11-13T10:05:11.575Z,12.10
2018-11-13T10:07:39.094Z,12.10
2018-11-13T10:10:08.341Z,12.10
2018-11-13T10:12:36.578Z,12.00
2018-11-13T10:15:06.001Z,11.80
2018-11-13T10:17:34.213Z,11.70
2018-11-13T10:20:02.381Z,11.80
2018-11-13T10:22:30.553Z,11.90
2018-11-13T10:24:58.744Z,12.00
2018-11-13T10:27:26.945Z,12.10
2018-11-13T10:29:55.149Z,12.20
2018-11-13T10:32:23.309Z,12.30
2018-11-13T10:34:51.497Z,12.40
2018-11-13T10:37:19.737Z,12.40
2018-11-13T10:39:47.979Z,12.40
2018-11-13T10:42:16.121Z,12.40
2018-11-13T10:44:44.323Z,12.40
2018-11-13T10:47:12.513Z,12.40
2018-11-13T10:49:41.137Z,12.40
2018-11-13T10:52:09.331Z,12.40
2018-11-13T10:54:37.552Z,12.50
2018-11-13T10:57:05.743Z,12.60
2018-11-13T10:59:33.928Z,12.80
2018-11-13T11:02:06.363Z,12.90
2018-11-13T11:04:42.181Z,12.90
2018-11-13T11:07:10.366Z,12.80
2018-11-13T11:09:38.981Z,12.80
2018-11-13T11:12:07.661Z,12.80
2018-11-13T11:14:35.830Z,12.80
2018-11-13T11:17:04.018Z,12.80
2018-11-13T11:19:32.425Z,12.70
2018-11-13T11:22:00.591Z,12.60
2018-11-13T11:24:28.985Z,12.60
2018-11-13T11:26:57.181Z,12.70
2018-11-13T11:29:25.481Z,12.90
2018-11-13T11:31:53.657Z,13.10
2018-11-13T11:34:21.836Z,13.50
2018-11-13T11:36:50.040Z,13.70
2018-11-13T11:39:18.294Z,13.90
2018-11-13T11:41:46.411Z,14.00
2018-11-13T11:44:14.624Z,13.90
2018-11-13T11:46:42.810Z,13.70
2018-11-13T11:49:10.980Z,13.70
2018-11-13T11:51:39.176Z,13.60
2018-11-13T11:54:07.357Z,13.40
2018-11-13T11:56:35.567Z,13.20
2018-11-13T11:59:04.154Z,12.90
2018-11-13T12:01:32.349Z,12.80
2018-11-13T12:04:00.540Z,12.80
2018-11-13T12:06:28.757Z,12.70
2018-11-13T12:08:56.952Z,12.70
2018-11-13T12:11:25.205Z,12.80
2018-11-13T12:13:53.372Z,12.90
2018-11-13T12:16:21.596Z,13.10
2018-11-13T12:18:49.810Z,13.20
2018-11-13T12:21:17.973Z,13.30
2018-11-13T12:23:46.205Z,13.40
2018-11-13T12:26:14.372Z,13.50
2018-11-13T12:28:42.602Z,13.50
2018-11-13T12:31:10.791Z,13.60
2018-11-13T12:33:39.009Z,13.70
2018-11-13T12:36:07.198Z,13.60
2018-11-13T12:38:35.417Z,13.40
2018-11-13T12:41:03.585Z,13.20
2018-11-13T12:43:31.849Z,13.10
2018-11-13T12:46:00.057Z,12.90
2018-11-13T12:48:28.264Z,12.80
2018-11-13T12:51:02.735Z,12.70
2018-11-13T12:53:31.073Z,12.90
2018-11-13T12:56:00.566Z,13.00
2018-11-13T12:58:27.994Z,13.20
2018-11-13T13:00:56.928Z,13.20
2018-11-13T13:03:29.552Z,13.40
2018-11-13T13:05:57.775Z,13.40
2018-11-13T13:08:26.033Z,13.30
2018-11-13T13:10:55.321Z,13.20
2018-11-13T13:13:23.831Z,13.00
2018-11-13T13:15:52.020Z,12.90
2018-11-13T13:18:20.252Z,12.80
2018-11-13T13:20:48.465Z,12.70
2018-11-13T13:23:16.723Z,12.60
2018-11-13T13:25:44.963Z,12.70
2018-11-13T13:28:13.172Z,12.80
2018-11-13T13:30:41.553Z,13.00
2018-11-13T13:33:10.637Z,13.10
2018-11-13T13:35:44.716Z,13.20
2018-11-13T13:38:13.064Z,13.20
2018-11-13T13:40:42.207Z,13.10
2018-11-13T13:43:11.420Z,13.10
2018-11-13T13:45:41.100Z,13.00
2018-11-13T13:48:09.340Z,13.00
2018-11-13T13:50:37.843Z,12.90
2018-11-13T13:53:06.474Z,12.90
2018-11-13T13:55:34.661Z,12.90
2018-11-13T13:58:03.745Z,12.90
2018-11-13T14:00:32.270Z,12.90
2018-11-13T14:03:00.914Z,12.80
2018-11-13T14:05:36.760Z,12.80
2018-11-13T14:08:14.664Z,12.70
2018-11-13T14:10:43.068Z,12.70
2018-11-13T14:13:11.625Z,12.60
2018-11-13T14:15:39.905Z,12.60
2018-11-13T14:18:11.992Z,12.50
2018-11-13T14:20:40.168Z,12.40
2018-11-13T14:23:08.397Z,12.40
2018-11-13T14:25:36.585Z,12.30
2018-11-13T14:28:04.822Z,12.30
2018-11-13T14:30:34.364Z,12.30
2018-11-13T14:33:05.005Z,12.20
2018-11-13T14:35:33.219Z,12.20
2018-11-13T14:38:01.878Z,12.10
2018-11-13T14:40:33.421Z,12.10
2018-11-13T14:43:02.022Z,12.00
2018-11-13T14:45:30.450Z,11.90
2018-11-13T14:47:58.974Z,11.90
2018-11-13T14:50:28.372Z,11.90
2018-11-13T14:52:56.820Z,11.80
2018-11-13T14:55:33.377Z,11.80
2018-11-13T14:58:02.472Z,11.80
2018-11-13T15:00:31.782Z,11.70
2018-11-13T15:03:00.621Z,11.60
2018-11-13T15:05:31.213Z,11.60
2018-11-13T15:08:01.516Z,11.60
2018-11-13T15:10:39.922Z,11.50
2018-11-13T15:13:08.524Z,11.50
2018-11-13T15:15:36.716Z,11.40
2018-11-13T15:18:05.313Z,11.40
2018-11-13T15:20:33.634Z,11.40
2018-11-13T15:23:01.872Z,11.40
2018-11-13T15:25:30.122Z,11.40
2018-11-13T15:27:58.316Z,11.40
2018-11-13T15:30:29.164Z,11.30
2018-11-13T15:32:59.828Z,11.30
2018-11-13T15:35:28.070Z,11.30
2018-11-13T15:37:56.297Z,11.20
2018-11-13T15:40:25.728Z,11.20
2018-11-13T15:42:54.744Z,11.20
2018-11-13T15:45:22.953Z,11.10
2018-11-13T15:47:51.958Z,11.10
2018-11-13T15:50:22.461Z,11.10
2018-11-13T15:52:50.638Z,11.00
2018-11-13T15:55:18.954Z,11.00
2018-11-13T15:57:47.568Z,10.90
2018-11-13T16:00:29.709Z,10.90
2018-11-13T16:02:59.025Z,10.90
2018-11-13T16:05:31.531Z,10.90
2018-11-13T16:08:00.668Z,10.80
2018-11-13T16:10:29.209Z,10.80
2018-11-13T16:12:57.485Z,10.80
2018-11-13T16:15:26.516Z,10.80
2018-11-13T16:17:55.533Z,10.80
2018-11-13T16:20:24.009Z,10.80
2018-11-13T16:22:52.198Z,11.10
2018-11-13T16:25:20.465Z,10.80
2018-11-13T16:27:48.635Z,10.80
2018-11-13T16:30:33.876Z,10.70
2018-11-13T16:33:01.937Z,10.70
2018-11-13T16:35:30.730Z,10.70
2018-11-13T16:37:59.913Z,10.70
2018-11-13T16:40:29.208Z,10.70
2018-11-13T16:42:57.386Z,10.60
2018-11-13T16:45:26.568Z,10.60
2018-11-13T16:47:55.056Z,10.50
2018-11-13T16:50:24.545Z,10.50
2018-11-13T16:52:52.716Z,10.50
2018-11-13T16:55:26.385Z,10.40
2018-11-13T16:57:55.356Z,10.40
2018-11-13T17:00:24.064Z,10.30
2018-11-13T17:02:52.221Z,10.30
2018-11-13T17:05:21.274Z,10.30
2018-11-13T17:07:49.608Z,10.30
2018-11-13T17:10:19.756Z,10.20
2018-11-13T17:12:48.200Z,10.20
2018-11-13T17:15:21.717Z,10.20
2018-11-13T17:17:50.756Z,10.20
2018-11-13T17:20:19.072Z,10.10
2018-11-13T17:22:47.917Z,10.10
2018-11-13T17:25:17.472Z,10.10
2018-11-13T17:27:46.517Z,10.00
2018-11-13T17:30:19.780Z,10.00
2018-11-13T17:32:48.473Z,10.00
2018-11-13T17:35:17.972Z,9.90
2018-11-13T17:37:46.865Z,9.90
2018-11-13T17:40:16.943Z,9.90
2018-11-13T17:42:45.805Z,9.90
2018-11-13T17:45:21.001Z,9.90
2018-11-13T17:47:49.209Z,9.90
2018-11-13T17:50:22.632Z,9.80
2018-11-13T17:52:51.426Z,9.90
2018-11-13T17:55:20.083Z,9.80
2018-11-13T17:57:49.941Z,9.80
2018-11-13T18:00:21.724Z,9.80
2018-11-13T18:02:50.460Z,9.80
2018-11-13T18:05:19.897Z,9.80
2018-11-13T18:07:48.309Z,9.80
2018-11-13T18:10:17.268Z,9.70
2018-11-13T18:12:45.445Z,9.70
2018-11-13T18:15:15.047Z,9.70
2018-11-13T18:17:43.605Z,9.70
2018-11-13T18:20:14.719Z,9.60
2018-11-13T18:22:43.521Z,9.60
2018-11-13T18:25:11.732Z,9.60
2018-11-13T18:27:41.399Z,9.60
2018-11-13T18:30:13.751Z,9.60
2018-11-13T18:32:42.512Z,9.60
2018-11-13T18:35:12.283Z,9.50
2018-11-13T18:37:40.513Z,9.50
2018-11-13T18:40:10.697Z,9.50
2018-11-13T18:42:39.045Z,9.50
2018-11-13T18:45:09.675Z,9.40
2018-11-13T18:47:39.501Z,9.40
2018-11-13T18:50:10.043Z,9.20
2018-11-13T18:52:38.296Z,9.40
2018-11-13T18:55:06.511Z,9.40
2018-11-13T18:57:34.749Z,9.40
2018-11-13T19:00:03.011Z,9.30
2018-11-13T19:02:31.300Z,9.30
2018-11-13T19:05:00.010Z,9.30
2018-11-13T19:07:28.208Z,9.30
2018-11-13T19:09:56.397Z,9.20
2018-11-13T19:12:24.674Z,9.20
2018-11-13T19:14:52.870Z,9.20
2018-11-13T19:17:21.095Z,9.20
2018-11-13T19:19:49.448Z,9.10
2018-11-13T19:22:17.551Z,9.10
2018-11-13T19:24:45.781Z,9.10
2018-11-13T19:27:14.014Z,9.10
2018-11-13T19:29:42.271Z,9.10
2018-11-13T19:32:10.400Z,9.00
2018-11-13T19:34:38.589Z,9.00
2018-11-13T19:37:06.923Z,9.00
2018-11-13T19:39:35.055Z,9.00
2018-11-13T19:42:03.321Z,9.00
2018-11-13T19:44:31.747Z,8.90
2018-11-13T19:46:59.987Z,8.90
2018-11-13T19:49:28.504Z,8.90
2018-11-13T19:51:56.731Z,8.90
2018-11-13T19:54:24.896Z,8.90
2018-11-13T19:56:53.149Z,8.90
2018-11-13T19:59:21.309Z,8.80
2018-11-13T20:01:49.989Z,8.80
2018-11-13T20:04:18.323Z,8.80
2018-11-13T20:06:46.644Z,8.80
2018-11-13T20:09:14.871Z,8.80
2018-11-13T20:11:43.112Z,8.80
2018-11-13T20:14:11.281Z,8.80
2018-11-13T20:16:40.225Z,8.80
2018-11-13T20:19:08.492Z,8.80
2018-11-13T20:21:36.769Z,8.80
2018-11-13T20:24:05.092Z,8.80
2018-11-13T20:26:33.263Z,8.80
2018-11-13T20:29:01.507Z,8.80
2018-11-13T20:31:29.726Z,8.80
2018-11-13T20:33:57.921Z,8.80
2018-11-13T20:36:26.432Z,8.80
2018-11-13T20:38:55.244Z,8.80
2018-11-13T20:41:23.428Z,8.80
2018-11-13T20:43:53.735Z,8.80
2018-11-13T20:46:22.542Z,8.80
2018-11-13T20:48:51.882Z,8.90
2018-11-13T20:51:20.282Z,8.90
2018-11-13T20:53:48.672Z,8.90
2018-11-13T20:56:16.863Z,8.90
2018-11-13T20:58:45.369Z,8.90
2018-11-13T21:01:13.542Z,8.80
2018-11-13T21:03:41.770Z,8.80
2018-11-13T21:06:09.937Z,8.80
2018-11-13T21:08:42.687Z,8.80
2018-11-13T21:11:10.877Z,8.80
2018-11-13T21:13:43.163Z,8.80
2018-11-13T21:16:12.300Z,8.80
2018-11-13T21:18:40.677Z,8.80
2018-11-13T21:21:08.956Z,8.70
2018-11-13T21:23:37.311Z,8.70
2018-11-13T21:26:05.564Z,8.70
2018-11-13T21:28:34.252Z,8.70
2018-11-13T21:31:02.466Z,8.70
2018-11-13T21:33:31.045Z,8.70
2018-11-13T21:35:59.224Z,8.70
2018-11-13T21:38:27.442Z,8.70
2018-11-13T21:40:55.766Z,8.70
2018-11-13T21:43:24.043Z,8.60
2018-11-13T21:45:52.145Z,8.60
2018-11-13T21:48:20.391Z,8.60
2018-11-13T21:50:48.571Z,9.20
2018-11-13T21:53:16.781Z,8.50
2018-11-13T21:55:45.056Z,8.50
2018-11-13T21:58:13.222Z,8.50
2018-11-13T22:00:41.385Z,8.50
2018-11-13T22:03:10.045Z,8.50
2018-11-13T22:05:38.256Z,8.40
2018-11-13T22:08:08.255Z,8.40
2018-11-13T22:10:36.328Z,8.40
2018-11-13T22:13:04.688Z,8.30
2018-11-13T22:15:32.804Z,8.30
2018-11-13T22:18:01.355Z,7.90
2018-11-13T22:20:29.197Z,8.30
2018-11-13T22:22:58.289Z,8.30
2018-11-13T22:25:26.846Z,8.30
2018-11-13T22:27:56.287Z,8.20
2018-11-13T22:30:25.478Z,8.20
2018-11-13T22:32:53.669Z,8.20
2018-11-13T22:35:22.296Z,8.20
2018-11-13T22:37:50.484Z,8.20
2018-11-13T22:40:19.977Z,8.20
2018-11-13T22:42:48.433Z,8.20
2018-11-13T22:45:19.704Z,8.20
2018-11-13T22:47:47.922Z,8.20
2018-11-13T22:50:18.698Z,8.20
2018-11-13T22:52:47.028Z,8.10
2018-11-13T22:55:15.648Z,8.10
2018-11-13T22:57:44.540Z,8.10
2018-11-13T23:00:30.669Z,8.10
2018-11-13T23:02:58.948Z,8.20
2018-11-13T23:05:27.116Z,8.10
2018-11-13T23:07:55.556Z,8.10
2018-11-13T23:10:23.736Z,8.10
2018-11-13T23:12:51.962Z,8.10
2018-11-13T23:15:21.195Z,8.20
2018-11-13T23:17:49.402Z,8.20
2018-11-13T23:20:19.063Z,8.20
2018-11-13T23:22:47.259Z,8.20
2018-11-13T23:25:16.584Z,8.20
2018-11-13T23:27:45.571Z,8.20
2018-11-13T23:30:16.191Z,8.20
2018-11-13T23:32:44.993Z,8.20
2018-11-13T23:35:13.666Z,8.30
2018-11-13T23:37:42.783Z,8.20
2018-11-13T23:40:13.739Z,8.30
2018-11-13T23:42:41.795Z,8.30
2018-11-13T23:45:10.655Z,8.30
2018-11-13T23:47:38.849Z,8.30
2018-11-13T23:50:07.585Z,8.30
2018-11-13T23:52:35.817Z,8.30
2018-11-13T23:55:04.069Z,8.30
2018-11-13T23:57:32.250Z,8.20
